Time;durP1;ratioP1;P1;durP2;ratioP2;P2;SDS_P1;SDS_P2;PMS_P1;PMS_P2;Temp;Humidity;BMP_temperature;BMP_pressure;BME280_temperature;BME280_humidity;BME280_pressure;Samples;Min_cycle;Max_cycle;Signal;HPM_P1;HPM_P2
2021/11/08 00:02:36;;;;;;;87.35;66.53;;;21.80;53.60;;;;;;4566703;57;21116;-37
2021/11/08 00:07:37;;;;;;;83.07;63.70;;;21.80;53.50;;;;;;4606131;57;22349;-33
2021/11/08 00:12:38;;;;;;;85.15;65.47;;;21.80;53.60;;;;;;4572493;57;21027;-29
2021/11/08 00:18:24;;;;;;;84.60;65.03;;;21.80;53.50;;;;;;4583757;57;21521;-36
2021/11/08 00:23:27;;;;;;;83.57;65.35;;;21.80;53.50;;;;;;4564548;57;21566;-36
2021/11/08 00:28:29;;;;;;;83.22;65.32;;;21.80;53.50;;;;;;4572504;57;21524;-29
2021/11/08 00:33:30;;;;;;;80.75;61.13;;;21.80;53.60;;;;;;4558886;57;21530;-27
2021/11/08 00:38:31;;;;;;;82.57;62.85;;;21.70;53.50;;;;;;4579224;57;21080;-26
2021/11/08 00:43:32;;;;;;;83.20;62.62;;;21.80;53.40;;;;;;4571443;57;21499;-37
2021/11/08 00:48:35;;;;;;;82.70;63.33;;;21.80;53.50;;;;;;4558213;61;21517;-30
2021/11/08 00:53:37;;;;;;;79.68;61.35;;;21.80;53.50;;;;;;4596507;57;21498;-32
2021/11/08 00:58:40;;;;;;;82.07;61.30;;;21.70;53.50;;;;;;4589627;57;21490;-27
2021/11/08 01:03:44;;;;;;;78.65;60.10;;;21.70;53.40;;;;;;4594967;57;21538;-25
2021/11/08 01:08:46;;;;;;;76.00;60.10;;;21.70;53.40;;;;;;4560415;57;21589;-35
2021/11/08 01:13:47;;;;;;;78.53;61.30;;;21.70;53.40;;;;;;4557306;61;21079;-30
2021/11/08 01:18:52;;;;;;;75.45;58.00;;;21.80;53.50;;;;;;4574084;57;21091;-34
2021/11/08 01:23:53;;;;;;;78.78;61.05;;;21.70;53.40;;;;;;4563578;57;21581;-35
2021/11/08 01:28:54;;;;;;;75.97;58.42;;;21.70;53.40;;;;;;4566413;57;21490;-36
2021/11/08 01:33:55;;;;;;;75.82;58.08;;;21.70;53.40;;;;;;4571068;57;21055;-36
2021/11/08 01:39:01;;;;;;;76.35;58.30;;;21.70;53.50;;;;;;4569815;57;21529;-37
2021/11/08 01:44:01;;;;;;;71.35;55.97;;;21.70;53.30;;;;;;4557969;61;21581;-34
2021/11/08 01:49:02;;;;;;;73.45;57.10;;;21.70;53.40;;;;;;4580155;57;21039;-34
2021/11/08 01:54:06;;;;;;;75.32;57.67;;;21.70;53.40;;;;;;4583010;57;21023;-33
2021/11/08 01:59:07;;;;;;;71.40;55.60;;;21.70;53.40;;;;;;4566274;57;21534;-35
2021/11/08 02:04:09;;;;;;;72.37;56.58;;;21.70;53.30;;;;;;4585342;57;21034;-31
2021/11/08 02:09:10;;;;;;;70.45;55.03;;;21.70;53.40;;;;;;4587658;57;20999;-29
2021/11/08 02:14:12;;;;;;;72.40;56.08;;;21.70;53.30;;;;;;4587695;57;21097;-26
2021/11/08 02:19:13;;;;;;;71.70;54.15;;;21.70;53.30;;;;;;4558343;61;21589;-33
2021/11/08 02:24:17;;;;;;;67.40;51.75;;;21.70;53.30;;;;;;4570066;57;21027;-31
2021/11/08 02:29:18;;;;;;;73.55;56.05;;;21.70;53.40;;;;;;4582391;57;22061;-34
2021/11/08 02:34:19;;;;;;;70.87;54.47;;;21.70;53.30;;;;;;4556933;61;21142;-32
2021/11/08 02:39:28;;;;;;;72.22;54.92;;;21.70;53.30;;;;;;4558335;61;21525;-30
2021/11/08 02:44:29;;;;;;;62.53;48.90;;;21.70;53.30;;;;;;4586710;57;21743;-31
2021/11/08 02:49:32;;;;;;;66.97;52.42;;;21.70;53.40;;;;;;4615260;57;21023;-22
2021/11/08 02:54:40;;;;;;;65.05;50.90;;;21.70;53.30;;;;;;4576636;57;21093;-31
2021/11/08 02:59:41;;;;;;;;;;;21.70;53.20;;;;;;4576190;57;21182;-36
2021/11/08 03:04:44;;;;;;;69.90;52.40;;;21.70;53.40;;;;;;4594479;57;20375;-36
2021/11/08 03:09:52;;;;;;;64.85;51.75;;;21.70;53.30;;;;;;4561605;57;22391;-25
2021/11/08 03:22:32;;;;;;;68.78;52.45;;;21.70;53.20;;;;;;4580702;57;21226;-35
2021/11/08 03:27:51;;;;;;;65.62;50.70;;;21.70;53.30;;;;;;4575002;57;22015;-36
2021/11/08 03:32:55;;;;;;;62.78;49.97;;;21.70;53.30;;;;;;4564157;57;21146;-32
2021/11/08 03:37:57;;;;;;;64.00;49.63;;;21.70;53.20;;;;;;4577069;57;21581;-35
2021/11/08 03:43:00;;;;;;;63.20;48.95;;;21.70;53.20;;;;;;4596141;57;21109;-30
2021/11/08 03:48:04;;;;;;;64.22;49.92;;;21.70;53.30;;;;;;4575635;57;21070;-32
2021/11/08 03:53:05;;;;;;;63.70;49.42;;;21.70;53.30;;;;;;4561809;57;21111;-30
2021/11/08 03:58:06;;;;;;;64.10;48.92;;;21.70;53.20;;;;;;4569182;57;21592;-34
2021/11/08 04:03:09;;;;;;;62.00;48.17;;;21.70;53.30;;;;;;4569632;57;21174;-29
2021/11/08 04:08:16;;;;;;;61.75;48.58;;;21.70;53.20;;;;;;4567384;57;21103;-36
2021/11/08 04:13:19;;;;;;;;;;;21.70;53.20;;;;;;4561306;61;21131;-27
2021/11/08 04:18:25;;;;;;;63.13;47.97;;;21.70;53.20;;;;;;4558494;61;20430;-32
2021/11/08 04:23:27;;;;;;;60.90;47.35;;;21.70;53.20;;;;;;4558312;61;21513;-26
2021/11/08 04:28:27;;;;;;;60.72;48.05;;;21.70;53.20;;;;;;4571284;57;21062;-36
2021/11/08 04:33:41;;;;;;;63.47;46.60;;;21.70;53.30;;;;;;4572010;57;21542;-33
2021/11/08 04:38:58;;;;;;;57.05;44.45;;;21.70;53.10;;;;;;4565654;57;21581;-30
2021/11/08 04:44:23;;;;;;;63.60;48.30;;;21.70;53.20;;;;;;4560969;57;21490;-35
2021/11/08 05:29:54;;;;;;;58.45;43.30;;;21.70;53.10;;;;;;4571683;57;21055;-36
2021/11/08 05:34:56;;;;;;;56.85;43.80;;;21.70;53.10;;;;;;4582086;57;21690;-27
2021/11/08 05:40:06;;;;;;;57.58;43.80;;;21.70;53.20;;;;;;4602698;57;21111;-28
2021/11/08 05:45:09;;;;;;;59.60;44.10;;;21.70;53.30;;;;;;4572740;57;21521;-29
2021/11/08 05:50:13;;;;;;;59.47;44.35;;;21.70;53.40;;;;;;4581403;57;21505;-27
2021/11/08 05:55:14;;;;;;;60.72;43.90;;;21.70;53.50;;;;;;4584136;57;21106;-31
2021/11/08 06:55:07;;;;;;;60.45;43.10;;;21.70;53.80;;;;;;4557871;58;21776;-29
2021/11/08 07:00:09;;;;;;;56.78;42.38;;;21.70;53.70;;;;;;4564760;57;21562;-32
2021/11/08 07:05:10;;;;;;;57.75;41.95;;;21.70;53.70;;;;;;4560014;57;21130;-31
2021/11/08 07:10:11;;;;;;;56.95;42.42;;;21.70;53.70;;;;;;4557243;61;21096;-35
2021/11/08 07:15:12;;;;;;;55.83;41.88;;;21.70;53.60;;;;;;4597768;57;21037;-31
2021/11/08 07:20:13;;;;;;;52.42;39.22;;;21.70;53.60;;;;;;4558209;57;21055;-29
2021/11/08 07:25:15;;;;;;;57.53;41.65;;;21.70;53.60;;;;;;4585145;57;21019;-30
2021/11/08 07:30:16;;;;;;;56.37;41.47;;;21.60;53.50;;;;;;4569261;57;21130;-37
2021/11/08 07:35:17;;;;;;;52.13;38.08;;;21.60;53.60;;;;;;4641714;57;21604;-35
2021/11/08 07:40:18;;;;;;;55.55;40.10;;;21.60;53.60;;;;;;4577465;57;21075;-35
2021/11/08 07:45:19;;;;;;;55.10;42.50;;;21.60;53.60;;;;;;4556489;59;21027;-31
2021/11/08 07:50:21;;;;;;;56.30;41.67;;;21.60;53.50;;;;;;4559930;57;21036;-33
2021/11/08 07:55:22;;;;;;;58.90;42.05;;;21.60;53.50;;;;;;4581803;57;21047;-30
2021/11/08 08:00:23;;;;;;;57.17;41.67;;;21.60;53.50;;;;;;4582844;57;21099;-32
2021/11/08 08:05:24;;;;;;;57.53;42.55;;;21.60;53.50;;;;;;4610794;57;21147;-30
2021/11/08 08:10:26;;;;;;;62.60;43.28;;;21.60;53.60;;;;;;4555584;61;21306;-23
2021/11/08 08:15:27;;;;;;;58.72;43.83;;;21.70;53.50;;;;;;4611843;57;21055;-22
2021/11/08 08:20:31;;;;;;;61.28;44.30;;;21.70;53.90;;;;;;4576986;57;21126;-34
2021/11/08 08:25:32;;;;;;;59.60;42.95;;;21.70;54.10;;;;;;4557239;59;21033;-23
2021/11/08 08:30:33;;;;;;;61.63;43.97;;;21.70;54.30;;;;;;4592590;57;21104;-29
2021/11/08 08:35:39;;;;;;;56.37;42.72;;;21.80;54.50;;;;;;4589339;57;21084;-25
2021/11/08 08:40:41;;;;;;;60.42;44.85;;;21.80;54.80;;;;;;4569589;57;21537;-30
2021/11/08 08:45:42;;;;;;;61.42;44.05;;;21.90;54.90;;;;;;4557113;57;21521;-23
2021/11/08 08:50:43;;;;;;;59.72;44.40;;;21.90;55.00;;;;;;4557706;61;21114;-21
2021/11/08 08:55:45;;;;;;;61.70;45.95;;;21.90;55.10;;;;;;4564959;57;21664;-30
2021/11/08 09:00:48;;;;;;;63.70;47.28;;;21.90;55.20;;;;;;4580255;57;21079;-26
2021/11/08 09:05:50;;;;;;;62.13;47.75;;;22.00;55.40;;;;;;4564494;57;22210;-31
2021/11/08 09:10:51;;;;;;;67.20;49.42;;;22.00;55.40;;;;;;4590289;57;21083;-31
2021/11/08 09:15:52;;;;;;;69.47;50.67;;;22.00;55.50;;;;;;4584748;57;21544;-21
2021/11/08 09:20:53;;;;;;;69.65;51.15;;;22.10;55.60;;;;;;4564658;57;21127;-31
2021/11/08 09:25:54;;;;;;;75.10;55.70;;;22.10;55.60;;;;;;4564285;57;21043;-31
2021/11/08 09:30:54;;;;;;;73.93;54.60;;;22.10;55.50;;;;;;4575088;57;21078;-34
2021/11/08 09:36:02;;;;;;;79.70;56.28;;;22.10;55.40;;;;;;4557852;61;21047;-31
2021/11/08 09:41:08;;;;;;;85.30;59.58;;;22.10;55.30;;;;;;4592999;57;21602;-25
2021/11/08 09:46:09;;;;;;;78.70;56.72;;;22.10;55.30;;;;;;4572983;57;21641;-24
2021/11/08 09:51:13;;;;;;;83.97;61.15;;;22.10;55.30;;;;;;4560624;57;21139;-26
2021/11/08 09:56:15;;;;;;;81.63;59.53;;;22.10;55.30;;;;;;4568536;57;21140;-32
2021/11/08 10:01:19;;;;;;;81.93;60.70;;;22.10;55.30;;;;;;4576935;57;21123;-34
2021/11/08 10:06:20;;;;;;;82.88;62.42;;;22.10;55.40;;;;;;4558340;57;21594;-28
2021/11/08 10:11:22;;;;;;;84.57;63.08;;;22.10;55.40;;;;;;4556780;61;21067;-30
2021/11/08 10:16:32;;;;;;;85.97;63.87;;;22.20;55.60;;;;;;4564208;57;21482;-34
2021/11/08 10:21:41;;;;;;;88.47;65.35;;;22.20;55.70;;;;;;4570923;57;21569;-29
2021/11/08 10:26:43;;;;;;;88.45;65.62;;;22.20;55.70;;;;;;4557564;57;21514;-32
2021/11/08 10:31:47;;;;;;;92.00;67.80;;;22.20;55.80;;;;;;4556893;61;21058;-33
2021/11/08 10:37:00;;;;;;;93.40;68.72;;;22.20;55.80;;;;;;4566705;57;21059;-28
2021/11/08 10:42:02;;;;;;;95.70;72.20;;;22.30;56.00;;;;;;4586939;57;21485;-27
2021/11/08 10:47:07;;;;;;;95.15;70.60;;;22.30;56.10;;;;;;4557044;58;21027;-30
2021/11/08 10:52:19;;;;;;;95.55;72.07;;;22.30;56.30;;;;;;4583199;57;21055;-27
2021/11/08 10:57:23;;;;;;;100.87;73.87;;;22.40;56.50;;;;;;4557917;61;21539;-28
2021/11/08 11:02:27;;;;;;;101.38;74.10;;;22.40;56.60;;;;;;4578972;57;21051;-30
2021/11/08 11:07:34;;;;;;;101.55;78.03;;;22.40;56.70;;;;;;4595176;57;21051;-32
2021/11/08 11:12:40;;;;;;;99.93;78.53;;;22.40;56.70;;;;;;4566199;57;21666;-25
2021/11/08 11:17:55;;;;;;;102.53;77.87;;;22.40;56.80;;;;;;4556956;61;21068;-24
2021/11/08 11:23:05;;;;;;;112.80;84.13;;;22.50;57.00;;;;;;4557633;58;21593;-31
2021/11/08 11:28:07;;;;;;;104.50;81.40;;;22.50;57.10;;;;;;4558454;57;22044;-28
2021/11/08 11:33:23;;;;;;;109.07;81.87;;;22.50;57.10;;;;;;4582217;57;22403;-29
2021/11/08 11:38:28;;;;;;;112.18;86.10;;;22.60;57.30;;;;;;4572818;57;21143;-30
2021/11/08 11:43:50;;;;;;;113.72;85.80;;;22.60;57.40;;;;;;4560429;57;21511;-28
2021/11/08 11:48:51;;;;;;;118.18;88.78;;;22.60;57.50;;;;;;4557468;58;21039;-26
2021/11/08 11:53:54;;;;;;;118.97;90.82;;;22.60;57.50;;;;;;4584973;57;21126;-30
2021/11/08 11:58:55;;;;;;;114.18;89.93;;;22.60;57.60;;;;;;4561507;57;21115;-31
2021/11/08 12:03:56;;;;;;;116.20;87.53;;;22.70;57.60;;;;;;4593327;57;21103;-30
2021/11/08 12:09:00;;;;;;;117.45;89.57;;;22.70;57.90;;;;;;4563638;57;21111;-27
2021/11/08 12:14:12;;;;;;;121.35;92.57;;;22.70;57.80;;;;;;4574063;57;21051;-24
2021/11/08 12:19:18;;;;;;;128.00;94.68;;;22.70;57.80;;;;;;4595085;57;21556;-30
2021/11/08 12:24:24;;;;;;;125.07;94.90;;;22.70;57.70;;;;;;4574527;57;21087;-30
2021/11/08 12:29:25;;;;;;;128.23;98.30;;;22.70;57.60;;;;;;4557822;61;21059;-28
2021/11/08 12:34:26;;;;;;;122.80;94.43;;;22.60;57.50;;;;;;4557116;61;21739;-27
2021/11/08 12:39:29;;;;;;;126.40;97.78;;;22.60;57.90;;;;;;4576966;57;22232;-32
2021/11/08 12:44:36;;;;;;;126.18;96.43;;;22.60;57.40;;;;;;4582155;57;21549;-29
2021/11/08 12:49:51;;;;;;;126.68;99.87;;;22.50;57.30;;;;;;4580961;57;21070;-29
2021/11/08 12:55:54;;;;;;;128.43;97.18;;;22.60;57.20;;;;;;4578568;57;21071;-26
2021/11/08 13:00:54;;;;;;;129.80;101.70;;;22.60;57.20;;;;;;4564461;57;21027;-30
2021/11/08 13:05:58;;;;;;;130.23;99.93;;;22.60;57.30;;;;;;4565898;57;21617;-24
2021/11/08 13:11:12;;;;;;;131.10;101.70;;;22.60;57.50;;;;;;4584695;57;21580;-29
2021/11/08 13:16:13;;;;;;;127.78;100.40;;;22.70;57.60;;;;;;4589576;57;22337;-31
2021/11/08 13:21:23;;;;;;;129.52;100.32;;;22.70;57.60;;;;;;4598229;57;21080;-28
2021/11/08 13:26:25;;;;;;;126.25;99.87;;;22.70;57.70;;;;;;4563295;57;21063;-26
2021/11/08 13:31:28;;;;;;;130.12;100.40;;;22.80;57.90;;;;;;4559610;57;21140;-27
2021/11/08 13:36:30;;;;;;;135.45;104.90;;;22.80;58.20;;;;;;4596208;57;21091;-32
2021/11/08 13:41:35;;;;;;;127.30;101.25;;;22.80;58.20;;;;;;4611398;57;21154;-24
2021/11/08 13:46:42;;;;;;;132.00;104.57;;;22.80;58.30;;;;;;4571613;57;21621;-36
2021/11/08 13:51:49;;;;;;;137.07;106.82;;;22.80;58.30;;;;;;4602362;57;21577;-26
2021/11/08 13:56:55;;;;;;;137.83;106.67;;;22.80;58.40;;;;;;4571592;57;21533;-28
2021/11/08 14:02:04;;;;;;;132.37;102.35;;;22.80;58.40;;;;;;4563324;57;21162;-30
2021/11/08 14:07:07;;;;;;;127.03;102.22;;;22.80;58.50;;;;;;4566428;57;21497;-29
2021/11/08 14:12:12;;;;;;;127.57;103.80;;;22.80;58.50;;;;;;4579420;57;22020;-28
2021/11/08 14:17:19;;;;;;;128.62;101.53;;;22.80;58.50;;;;;;4560259;57;21973;-30
2021/11/08 14:22:29;;;;;;;129.77;104.05;;;22.90;58.70;;;;;;4558688;57;21119;-32
2021/11/08 14:27:33;;;;;;;134.05;103.47;;;22.90;58.80;;;;;;4556071;57;21043;-30
2021/11/08 14:32:34;;;;;;;136.45;105.50;;;22.90;58.70;;;;;;4564744;57;21064;-29
2021/11/08 14:38:00;;;;;;;131.73;103.50;;;22.80;58.60;;;;;;4560670;57;21139;-25
2021/11/08 14:43:13;;;;;;;134.87;102.85;;;22.90;58.70;;;;;;4557691;61;21573;-27
2021/11/08 14:48:13;;;;;;;134.80;104.55;;;22.80;58.70;;;;;;4579148;57;21105;-26
2021/11/08 14:53:14;;;;;;;123.82;98.87;;;22.80;58.80;;;;;;4556667;58;21517;-29
2021/11/08 14:58:19;;;;;;;130.95;104.55;;;22.80;58.70;;;;;;4592850;57;21641;-24
2021/11/08 15:03:22;;;;;;;141.80;111.37;;;22.80;58.50;;;;;;4578934;57;21409;-28
2021/11/08 15:08:24;;;;;;;137.07;108.95;;;22.80;58.40;;;;;;4573244;57;22092;-29
2021/11/08 15:13:27;;;;;;;142.18;114.20;;;22.80;58.40;;;;;;4571164;57;21746;-31
2021/11/08 15:18:29;;;;;;;143.13;111.35;;;22.80;58.40;;;;;;4557948;59;21560;-31
2021/11/08 15:23:40;;;;;;;142.95;110.93;;;22.80;58.40;;;;;;4586049;57;21505;-34
2021/11/08 15:28:47;;;;;;;136.80;111.45;;;22.80;58.40;;;;;;4564349;57;22189;-29
2021/11/08 15:34:13;;;;;;;135.82;107.32;;;22.80;58.50;;;;;;4592042;57;21063;-27
2021/11/08 15:39:25;;;;;;;137.93;112.90;;;22.80;58.60;;;;;;4575709;57;21546;-25
2021/11/08 15:44:29;;;;;;;138.00;110.80;;;22.80;58.60;;;;;;4571784;57;21510;-27
2021/11/08 15:49:30;;;;;;;142.85;110.12;;;22.80;58.60;;;;;;4614307;57;21553;-38
2021/11/08 15:54:31;;;;;;;138.15;111.53;;;22.80;58.60;;;;;;4619665;57;21518;-36
2021/11/08 15:59:32;;;;;;;139.50;112.32;;;22.70;58.50;;;;;;4567867;57;21685;-35
2021/11/08 16:04:33;;;;;;;137.55;110.28;;;22.70;58.40;;;;;;4558929;57;21043;-36
2021/11/08 16:09:34;;;;;;;133.73;110.47;;;22.70;58.50;;;;;;4559171;57;21598;-37
2021/11/08 16:14:35;;;;;;;138.43;110.53;;;22.60;58.40;;;;;;4561393;57;21040;-34
2021/11/08 16:19:35;;;;;;;146.55;112.82;;;22.60;58.30;;;;;;4559391;57;21055;-35
2021/11/08 16:24:36;;;;;;;142.55;115.30;;;22.50;58.30;;;;;;4557163;61;21035;-25
2021/11/08 16:29:37;;;;;;;148.95;117.60;;;22.50;58.30;;;;;;4560787;57;21050;-29
2021/11/08 16:34:38;;;;;;;146.65;116.82;;;22.50;58.30;;;;;;4581038;57;21167;-33
2021/11/08 16:39:39;;;;;;;147.27;117.53;;;22.40;58.30;;;;;;4580485;57;21086;-34
2021/11/08 16:44:40;;;;;;;146.48;117.07;;;22.40;58.30;;;;;;4562948;57;21592;-32
2021/11/08 16:49:41;;;;;;;145.12;115.93;;;22.40;58.30;;;;;;4568449;57;21071;-30
2021/11/08 16:54:42;;;;;;;151.18;120.00;;;22.30;58.20;;;;;;4573642;57;21536;-33
2021/11/08 16:59:47;;;;;;;153.60;121.03;;;22.30;58.20;;;;;;4585278;57;21617;-36
2021/11/08 17:04:48;;;;;;;153.62;120.93;;;22.30;58.20;;;;;;4570881;57;21537;-29
2021/11/08 17:15:32;;;;;;;156.65;121.00;;;22.30;58.20;;;;;;4559513;57;21135;-36
2021/11/08 17:20:35;;;;;;;154.23;123.43;;;22.20;58.10;;;;;;4568800;57;21542;-25
2021/11/08 17:25:36;;;;;;;151.48;123.57;;;22.20;58.10;;;;;;4579347;57;21589;-36
2021/11/08 17:30:38;;;;;;;153.73;121.32;;;22.30;58.10;;;;;;4570509;57;21039;-41
2021/11/08 17:35:39;;;;;;;159.32;125.93;;;22.20;58.00;;;;;;4566679;57;21036;-36
2021/11/08 17:40:40;;;;;;;153.60;122.50;;;22.20;58.00;;;;;;4570334;57;21129;-37
2021/11/08 17:45:41;;;;;;;162.57;127.00;;;22.20;58.10;;;;;;4560799;57;22409;-35
2021/11/08 17:50:45;;;;;;;157.68;126.10;;;22.20;58.00;;;;;;4587957;57;21126;-32
2021/11/08 17:55:47;;;;;;;160.55;127.28;;;22.20;58.00;;;;;;4557679;61;21132;-36
2021/11/08 18:00:49;;;;;;;161.65;129.23;;;22.20;57.90;;;;;;4569304;57;21079;-30
2021/11/08 18:05:53;;;;;;;162.37;129.95;;;22.20;57.90;;;;;;4601565;57;21569;-21
2021/11/08 18:10:54;;;;;;;166.18;131.15;;;22.20;57.90;;;;;;4575493;57;21549;-21
2021/11/08 18:15:57;;;;;;;165.37;130.30;;;22.20;57.90;;;;;;4575084;57;21111;-32
2021/11/08 18:21:06;;;;;;;164.40;130.35;;;22.20;57.90;;;;;;4564554;57;21651;-27
2021/11/08 18:26:28;;;;;;;163.35;131.00;;;22.10;57.80;;;;;;4560433;57;21521;-35
2021/11/08 18:31:29;;;;;;;165.37;132.20;;;22.10;57.70;;;;;;4575756;57;21608;-35
2021/11/08 18:36:31;;;;;;;163.18;131.50;;;22.10;57.70;;;;;;4571535;57;21150;-33
2021/11/08 18:41:32;;;;;;;166.00;131.63;;;22.10;57.70;;;;;;4557335;61;21604;-22
2021/11/08 18:46:33;;;;;;;163.00;131.55;;;22.10;57.70;;;;;;4579666;57;21058;-30
2021/11/08 18:51:33;;;;;;;162.57;130.80;;;22.10;57.60;;;;;;4582399;57;21072;-34
2021/11/08 18:56:36;;;;;;;163.82;127.62;;;22.10;57.60;;;;;;4568196;57;21509;-35
2021/11/08 19:01:48;;;;;;;167.75;135.43;;;22.10;57.60;;;;;;4557291;61;21537;-37
2021/11/08 19:07:06;;;;;;;170.40;133.63;;;22.10;57.60;;;;;;4557842;59;21075;-35
2021/11/08 19:12:08;;;;;;;165.70;132.37;;;22.10;57.50;;;;;;4572756;57;21590;-35
2021/11/08 19:17:09;;;;;;;165.60;132.57;;;22.10;58.10;;;;;;4597356;57;21031;-26
2021/11/08 19:22:10;;;;;;;162.23;127.97;;;22.10;57.50;;;;;;4557718;61;21549;-35
2021/11/08 19:27:11;;;;;;;163.37;130.93;;;22.10;57.40;;;;;;4561472;57;21494;-36
2021/11/08 19:32:17;;;;;;;160.65;130.32;;;22.10;57.30;;;;;;4579874;57;21091;-28
2021/11/08 19:42:37;;;;;;;159.00;128.18;;;22.10;57.20;;;;;;4557005;57;21178;-34
2021/11/08 19:47:38;;;;;;;168.27;133.20;;;22.10;57.20;;;;;;4587742;57;21078;-34
2021/11/08 19:52:39;;;;;;;162.40;128.07;;;22.10;57.10;;;;;;4579643;57;21667;-37
2021/11/08 19:57:41;;;;;;;156.60;126.07;;;22.10;57.10;;;;;;4571825;57;21509;-36
2021/11/08 20:02:42;;;;;;;158.00;125.78;;;22.00;57.00;;;;;;4556951;61;21035;-32
2021/11/08 20:07:46;;;;;;;149.30;122.15;;;22.00;56.90;;;;;;4558060;58;21035;-35
2021/11/08 20:21:21;;;;;;;156.63;124.32;;;22.00;56.90;;;;;;4557344;57;21194;-36
2021/11/08 20:26:23;;;;;;;151.27;121.95;;;22.00;57.10;;;;;;4614624;57;21075;-34
2021/11/08 20:37:15;;;;;;;151.80;125.30;;;22.00;56.80;;;;;;4557940;57;21051;-36
2021/11/08 20:54:19;;;;;;;148.00;121.10;;;22.00;56.70;;;;;;4557375;57;21089;-35
2021/11/08 20:59:48;;;;;;;145.00;118.87;;;22.00;56.60;;;;;;4558208;58;21625;-27
2021/11/08 21:04:55;;;;;;;147.80;119.20;;;22.00;56.60;;;;;;4566529;57;21598;-30
2021/11/08 21:10:08;;;;;;;143.33;117.23;;;22.00;56.60;;;;;;4589571;57;22254;-32
2021/11/08 21:15:12;;;;;;;142.30;116.25;;;22.00;56.60;;;;;;4557189;61;21590;-29
2021/11/08 21:20:13;;;;;;;144.57;117.32;;;22.00;56.50;;;;;;4622731;57;21637;-36
2021/11/08 21:25:15;;;;;;;143.27;116.22;;;22.00;56.50;;;;;;4557578;61;21016;-36
2021/11/08 21:41:39;;;;;;;139.30;113.32;;;21.90;56.40;;;;;;4557515;57;21208;-37
2021/11/08 21:46:40;;;;;;;136.48;111.68;;;21.90;56.30;;;;;;4600980;57;21155;-35
2021/11/08 21:51:41;;;;;;;133.98;109.50;;;21.90;56.30;;;;;;4575397;57;21083;-38
2021/11/08 21:56:43;;;;;;;132.60;109.43;;;21.90;56.30;;;;;;4557781;61;21297;-29
2021/11/08 22:01:44;;;;;;;132.20;107.97;;;21.90;56.30;;;;;;4571528;57;21537;-35
2021/11/08 22:06:45;;;;;;;131.15;108.93;;;21.90;56.20;;;;;;4571837;57;21061;-32
2021/11/08 22:11:46;;;;;;;127.72;105.82;;;21.90;56.20;;;;;;4579829;57;21700;-34
2021/11/08 22:16:47;;;;;;;128.52;104.65;;;21.90;56.20;;;;;;4572961;57;21530;-36
2021/11/08 22:21:48;;;;;;;131.20;107.40;;;21.90;56.10;;;;;;4558324;61;21047;-38
2021/11/08 22:26:50;;;;;;;125.97;104.30;;;21.90;56.40;;;;;;4583801;57;21075;-37
2021/11/08 22:31:50;;;;;;;124.10;102.28;;;21.90;56.10;;;;;;4559160;57;21629;-37
2021/11/08 22:36:52;;;;;;;121.07;100.93;;;21.90;56.10;;;;;;4585369;57;21050;-33
2021/11/08 22:41:53;;;;;;;119.35;99.97;;;21.90;56.00;;;;;;4561138;57;21585;-35
2021/11/08 22:46:54;;;;;;;120.75;99.72;;;21.90;56.00;;;;;;4584392;57;21079;-37
2021/11/08 22:51:55;;;;;;;120.60;99.97;;;21.90;56.00;;;;;;4572968;57;21529;-32
2021/11/08 22:56:56;;;;;;;119.40;97.75;;;21.90;55.90;;;;;;4582915;57;21071;-33
2021/11/08 23:01:57;;;;;;;117.47;97.68;;;21.90;55.90;;;;;;4557356;61;21533;-24
2021/11/08 23:06:59;;;;;;;116.82;94.43;;;21.90;55.90;;;;;;4575006;57;21067;-32
2021/11/08 23:12:00;;;;;;;117.30;95.62;;;21.90;55.80;;;;;;4589047;57;21123;-34
2021/11/08 23:17:01;;;;;;;108.15;89.93;;;21.90;55.80;;;;;;4580940;57;21216;-36
2021/11/08 23:22:02;;;;;;;111.28;92.82;;;21.90;55.80;;;;;;4571895;57;21051;-37
2021/11/08 23:27:05;;;;;;;107.12;89.15;;;21.90;55.80;;;;;;4582072;57;21202;-36
2021/11/08 23:32:06;;;;;;;107.63;88.87;;;21.90;55.70;;;;;;4567581;57;21641;-35
2021/11/08 23:37:07;;;;;;;103.10;86.28;;;21.90;55.70;;;;;;4568917;57;21122;-32
2021/11/08 23:42:08;;;;;;;105.28;88.55;;;21.90;55.80;;;;;;4587154;57;21162;-32
2021/11/08 23:47:09;;;;;;;108.35;89.13;;;21.90;55.70;;;;;;4568736;57;21497;-33
2021/11/08 23:52:10;;;;;;;99.72;82.28;;;21.90;55.70;;;;;;4592964;57;21158;-37
2021/11/08 23:57:12;;;;;;;107.95;88.03;;;21.90;55.60;;;;;;4557746;61;21055;-27
